sensor_id;sensor_type;location;lat;lon;timestamp;temperature;humidity
9305;DHT22;4690;52.422;13.486;2022-09-03T00:05:36;14.10;99.90
9305;DHT22;4690;52.422;13.486;2022-09-03T00:08:22;14.10;99.90
9305;DHT22;4690;52.422;13.486;2022-09-03T00:11:20;14.10;99.90
9305;DHT22;4690;52.422;13.486;2022-09-03T00:13:56;14.00;99.90
9305;DHT22;4690;52.422;13.486;2022-09-03T00:16:33;13.90;99.90
9305;DHT22;4690;52.422;13.486;2022-09-03T00:19:16;13.90;99.90
9305;DHT22;4690;52.422;13.486;2022-09-03T00:21:59;13.90;99.90
9305;DHT22;4690;52.422;13.486;2022-09-03T00:24:37;13.90;99.90
9305;DHT22;4690;52.422;13.486;2022-09-03T00:27:09;13.80;99.90
9305;DHT22;4690;52.422;13.486;2022-09-03T00:29:49;13.80;99.90
9305;DHT22;4690;52.422;13.486;2022-09-03T00:32:27;13.80;99.90
9305;DHT22;4690;52.422;13.486;2022-09-03T00:35:03;13.80;99.90
9305;DHT22;4690;52.422;13.486;2022-09-03T00:37:34;13.80;99.90
9305;DHT22;4690;52.422;13.486;2022-09-03T00:39:59;13.80;99.90
9305;DHT22;4690;52.422;13.486;2022-09-03T00:42:48;13.80;99.90
9305;DHT22;4690;52.422;13.486;2022-09-03T00:45:48;13.80;99.90
9305;DHT22;4690;52.422;13.486;2022-09-03T00:48:35;13.70;99.90
9305;DHT22;4690;52.422;13.486;2022-09-03T01:02:54;13.50;99.90
9305;DHT22;4690;52.422;13.486;2022-09-03T01:05:32;13.50;99.90
9305;DHT22;4690;52.422;13.486;2022-09-03T01:08:47;13.50;99.90
9305;DHT22;4690;52.422;13.486;2022-09-03T01:26:34;13.40;99.90
9305;DHT22;4690;52.422;13.486;2022-09-03T01:29:14;13.40;99.90
9305;DHT22;4690;52.422;13.486;2022-09-03T01:32:10;13.40;99.90
9305;DHT22;4690;52.422;13.486;2022-09-03T01:35:02;13.30;99.90
9305;DHT22;4690;52.422;13.486;2022-09-03T01:37:42;13.40;99.90
9305;DHT22;4690;52.422;13.486;2022-09-03T01:46:55;13.30;99.90
9305;DHT22;4690;52.422;13.486;2022-09-03T01:50:15;13.30;99.90
9305;DHT22;4690;52.422;13.486;2022-09-03T01:52:58;13.40;99.90
9305;DHT22;4690;52.422;13.486;2022-09-03T01:56:12;13.40;99.90
9305;DHT22;4690;52.422;13.486;2022-09-03T01:59:10;13.30;99.90
9305;DHT22;4690;52.422;13.486;2022-09-03T02:02:04;13.30;99.90
9305;DHT22;4690;52.422;13.486;2022-09-03T02:07:48;13.30;99.90
9305;DHT22;4690;52.422;13.486;2022-09-03T02:10:24;13.30;99.90
9305;DHT22;4690;52.422;13.486;2022-09-03T02:13:04;13.30;99.90
9305;DHT22;4690;52.422;13.486;2022-09-03T02:15:31;13.30;99.90
9305;DHT22;4690;52.422;13.486;2022-09-03T02:18:02;13.20;99.90
9305;DHT22;4690;52.422;13.486;2022-09-03T02:20:32;13.20;99.90
9305;DHT22;4690;52.422;13.486;2022-09-03T02:22:58;13.20;99.90
9305;DHT22;4690;52.422;13.486;2022-09-03T02:25:31;13.20;99.90
9305;DHT22;4690;52.422;13.486;2022-09-03T02:28:00;13.20;99.90
9305;DHT22;4690;52.422;13.486;2022-09-03T02:30:28;13.20;99.90
9305;DHT22;4690;52.422;13.486;2022-09-03T02:32:54;13.10;99.90
9305;DHT22;4690;52.422;13.486;2022-09-03T02:35:20;13.10;99.90
9305;DHT22;4690;52.422;13.486;2022-09-03T02:37:46;13.10;99.90
9305;DHT22;4690;52.422;13.486;2022-09-03T02:40:11;13.00;99.90
9305;DHT22;4690;52.422;13.486;2022-09-03T02:42:37;13.00;99.90
9305;DHT22;4690;52.422;13.486;2022-09-03T02:45:23;13.00;99.90
9305;DHT22;4690;52.422;13.486;2022-09-03T02:47:55;13.00;99.90
9305;DHT22;4690;52.422;13.486;2022-09-03T02:50:24;12.90;99.90
9305;DHT22;4690;52.422;13.486;2022-09-03T02:52:51;12.90;99.90
9305;DHT22;4690;52.422;13.486;2022-09-03T02:55:18;12.90;99.90
9305;DHT22;4690;52.422;13.486;2022-09-03T02:57:44;12.90;99.90
9305;DHT22;4690;52.422;13.486;2022-09-03T03:00:11;12.90;99.90
9305;DHT22;4690;52.422;13.486;2022-09-03T03:02:38;12.90;99.90
9305;DHT22;4690;52.422;13.486;2022-09-03T03:05:04;12.80;99.90
9305;DHT22;4690;52.422;13.486;2022-09-03T03:07:36;12.80;99.90
9305;DHT22;4690;52.422;13.486;2022-09-03T03:10:05;12.70;99.90
9305;DHT22;4690;52.422;13.486;2022-09-03T03:12:31;12.70;99.90
9305;DHT22;4690;52.422;13.486;2022-09-03T03:14:57;12.80;99.90
9305;DHT22;4690;52.422;13.486;2022-09-03T03:17:22;12.60;99.90
9305;DHT22;4690;52.422;13.486;2022-09-03T03:19:48;12.70;99.90
9305;DHT22;4690;52.422;13.486;2022-09-03T03:22:14;12.70;99.90
9305;DHT22;4690;52.422;13.486;2022-09-03T03:24:40;12.70;99.90
9305;DHT22;4690;52.422;13.486;2022-09-03T03:27:05;12.70;99.90
9305;DHT22;4690;52.422;13.486;2022-09-03T03:29:35;12.60;99.90
9305;DHT22;4690;52.422;13.486;2022-09-03T03:32:01;12.70;99.90
9305;DHT22;4690;52.422;13.486;2022-09-03T03:34:27;12.70;99.90
9305;DHT22;4690;52.422;13.486;2022-09-03T03:36:53;12.60;99.90
9305;DHT22;4690;52.422;13.486;2022-09-03T03:39:18;12.60;99.90
9305;DHT22;4690;52.422;13.486;2022-09-03T03:41:45;12.50;99.90
9305;DHT22;4690;52.422;13.486;2022-09-03T03:44:11;12.50;99.90
9305;DHT22;4690;52.422;13.486;2022-09-03T03:46:39;12.60;99.90
9305;DHT22;4690;52.422;13.486;2022-09-03T03:49:06;12.50;99.90
9305;DHT22;4690;52.422;13.486;2022-09-03T03:51:36;12.50;99.90
9305;DHT22;4690;52.422;13.486;2022-09-03T03:54:02;12.50;99.90
9305;DHT22;4690;52.422;13.486;2022-09-03T03:56:29;12.40;99.90
9305;DHT22;4690;52.422;13.486;2022-09-03T03:58:55;12.40;99.90
9305;DHT22;4690;52.422;13.486;2022-09-03T04:01:25;12.40;99.90
9305;DHT22;4690;52.422;13.486;2022-09-03T04:03:55;12.40;99.90
9305;DHT22;4690;52.422;13.486;2022-09-03T04:06:22;12.40;99.90
9305;DHT22;4690;52.422;13.486;2022-09-03T04:08:48;12.40;99.90
9305;DHT22;4690;52.422;13.486;2022-09-03T04:11:20;12.30;99.90
9305;DHT22;4690;52.422;13.486;2022-09-03T04:13:48;12.30;99.90
9305;DHT22;4690;52.422;13.486;2022-09-03T04:16:20;12.40;99.90
9305;DHT22;4690;52.422;13.486;2022-09-03T04:18:52;12.30;99.90
9305;DHT22;4690;52.422;13.486;2022-09-03T04:21:22;12.40;99.90
9305;DHT22;4690;52.422;13.486;2022-09-03T04:23:52;12.40;99.90
9305;DHT22;4690;52.422;13.486;2022-09-03T04:26:27;12.40;99.90
9305;DHT22;4690;52.422;13.486;2022-09-03T04:29:02;12.50;99.90
9305;DHT22;4690;52.422;13.486;2022-09-03T04:31:33;12.50;99.90
9305;DHT22;4690;52.422;13.486;2022-09-03T04:34:00;12.50;99.90
9305;DHT22;4690;52.422;13.486;2022-09-03T04:36:28;12.50;99.90
9305;DHT22;4690;52.422;13.486;2022-09-03T04:38:58;12.50;99.90
9305;DHT22;4690;52.422;13.486;2022-09-03T04:41:26;12.50;99.90
9305;DHT22;4690;52.422;13.486;2022-09-03T04:43:55;12.50;99.90
9305;DHT22;4690;52.422;13.486;2022-09-03T04:46:25;12.50;99.90
9305;DHT22;4690;52.422;13.486;2022-09-03T04:48:56;12.50;99.90
9305;DHT22;4690;52.422;13.486;2022-09-03T04:51:24;12.50;99.90
9305;DHT22;4690;52.422;13.486;2022-09-03T04:53:56;12.60;99.90
9305;DHT22;4690;52.422;13.486;2022-09-03T04:56:26;12.60;99.90
9305;DHT22;4690;52.422;13.486;2022-09-03T04:58:59;12.60;99.90
9305;DHT22;4690;52.422;13.486;2022-09-03T05:01:28;12.60;99.90
9305;DHT22;4690;52.422;13.486;2022-09-03T05:03:56;12.70;99.90
9305;DHT22;4690;52.422;13.486;2022-09-03T05:06:23;12.70;99.90
9305;DHT22;4690;52.422;13.486;2022-09-03T05:08:51;12.70;99.90
9305;DHT22;4690;52.422;13.486;2022-09-03T05:11:18;12.70;99.90
9305;DHT22;4690;52.422;13.486;2022-09-03T05:13:53;12.80;99.90
9305;DHT22;4690;52.422;13.486;2022-09-03T05:16:20;12.80;99.90
9305;DHT22;4690;52.422;13.486;2022-09-03T05:18:51;12.90;99.90
9305;DHT22;4690;52.422;13.486;2022-09-03T05:21:19;12.90;99.90
9305;DHT22;4690;52.422;13.486;2022-09-03T05:23:47;12.90;99.90
9305;DHT22;4690;52.422;13.486;2022-09-03T05:26:19;12.90;99.90
9305;DHT22;4690;52.422;13.486;2022-09-03T05:28:47;13.00;99.90
9305;DHT22;4690;52.422;13.486;2022-09-03T05:31:19;13.10;99.90
9305;DHT22;4690;52.422;13.486;2022-09-03T05:33:48;13.20;99.90
9305;DHT22;4690;52.422;13.486;2022-09-03T05:36:18;13.30;99.90
9305;DHT22;4690;52.422;13.486;2022-09-03T05:38:47;13.30;99.90
9305;DHT22;4690;52.422;13.486;2022-09-03T05:41:15;13.30;99.90
9305;DHT22;4690;52.422;13.486;2022-09-03T05:43:43;13.40;99.90
9305;DHT22;4690;52.422;13.486;2022-09-03T05:46:11;13.30;99.90
9305;DHT22;4690;52.422;13.486;2022-09-03T05:48:40;13.40;99.90
9305;DHT22;4690;52.422;13.486;2022-09-03T05:51:15;13.30;99.90
9305;DHT22;4690;52.422;13.486;2022-09-03T05:53:46;13.30;99.90
9305;DHT22;4690;52.422;13.486;2022-09-03T05:56:18;13.20;99.90
9305;DHT22;4690;52.422;13.486;2022-09-03T05:58:51;13.10;99.90
9305;DHT22;4690;52.422;13.486;2022-09-03T06:03:55;13.00;99.90
9305;DHT22;4690;52.422;13.486;2022-09-03T06:06:29;13.00;99.90
9305;DHT22;4690;52.422;13.486;2022-09-03T06:08:58;13.00;99.90
9305;DHT22;4690;52.422;13.486;2022-09-03T06:11:27;13.00;99.90
9305;DHT22;4690;52.422;13.486;2022-09-03T06:13:55;13.00;99.90
9305;DHT22;4690;52.422;13.486;2022-09-03T06:16:21;13.00;99.90
9305;DHT22;4690;52.422;13.486;2022-09-03T06:18:48;12.90;99.90
9305;DHT22;4690;52.422;13.486;2022-09-03T06:21:14;13.00;99.90
9305;DHT22;4690;52.422;13.486;2022-09-03T06:23:40;13.00;99.90
9305;DHT22;4690;52.422;13.486;2022-09-03T06:26:11;13.10;99.90
9305;DHT22;4690;52.422;13.486;2022-09-03T06:28:41;13.10;99.90
9305;DHT22;4690;52.422;13.486;2022-09-03T06:31:11;13.20;99.90
9305;DHT22;4690;52.422;13.486;2022-09-03T06:33:40;13.20;99.90
9305;DHT22;4690;52.422;13.486;2022-09-03T06:36:11;13.20;99.90
9305;DHT22;4690;52.422;13.486;2022-09-03T06:38:39;13.20;99.90
9305;DHT22;4690;52.422;13.486;2022-09-03T06:41:11;13.20;99.90
9305;DHT22;4690;52.422;13.486;2022-09-03T06:43:41;13.40;99.90
9305;DHT22;4690;52.422;13.486;2022-09-03T06:46:10;13.30;99.90
9305;DHT22;4690;52.422;13.486;2022-09-03T06:48:39;13.30;99.90
9305;DHT22;4690;52.422;13.486;2022-09-03T06:51:14;13.40;99.90
9305;DHT22;4690;52.422;13.486;2022-09-03T06:53:47;13.30;99.90
9305;DHT22;4690;52.422;13.486;2022-09-03T06:56:19;13.40;99.90
9305;DHT22;4690;52.422;13.486;2022-09-03T06:58:51;13.40;99.90
9305;DHT22;4690;52.422;13.486;2022-09-03T07:01:20;13.40;99.90
9305;DHT22;4690;52.422;13.486;2022-09-03T07:03:55;13.50;99.90
9305;DHT22;4690;52.422;13.486;2022-09-03T07:06:37;13.60;99.90
9305;DHT22;4690;52.422;13.486;2022-09-03T07:09:05;13.70;99.90
9305;DHT22;4690;52.422;13.486;2022-09-03T07:11:32;13.80;99.90
9305;DHT22;4690;52.422;13.486;2022-09-03T07:14:00;13.90;99.90
9305;DHT22;4690;52.422;13.486;2022-09-03T07:16:37;14.00;99.90
9305;DHT22;4690;52.422;13.486;2022-09-03T07:19:04;14.00;99.90
9305;DHT22;4690;52.422;13.486;2022-09-03T07:21:31;14.20;99.90
9305;DHT22;4690;52.422;13.486;2022-09-03T07:23:58;14.30;99.90
9305;DHT22;4690;52.422;13.486;2022-09-03T07:26:26;14.40;99.90
9305;DHT22;4690;52.422;13.486;2022-09-03T07:28:54;14.50;99.90
9305;DHT22;4690;52.422;13.486;2022-09-03T07:31:30;14.60;99.90
9305;DHT22;4690;52.422;13.486;2022-09-03T07:33:59;14.60;99.90
9305;DHT22;4690;52.422;13.486;2022-09-03T07:36:29;14.70;99.90
9305;DHT22;4690;52.422;13.486;2022-09-03T07:38:57;14.80;99.90
9305;DHT22;4690;52.422;13.486;2022-09-03T07:41:25;14.90;99.90
9305;DHT22;4690;52.422;13.486;2022-09-03T07:43:52;15.00;99.90
9305;DHT22;4690;52.422;13.486;2022-09-03T07:46:23;15.10;99.90
9305;DHT22;4690;52.422;13.486;2022-09-03T07:48:57;15.20;99.90
9305;DHT22;4690;52.422;13.486;2022-09-03T07:51:26;15.20;99.90
9305;DHT22;4690;52.422;13.486;2022-09-03T07:53:56;15.40;99.90
9305;DHT22;4690;52.422;13.486;2022-09-03T07:56:24;15.50;99.90
9305;DHT22;4690;52.422;13.486;2022-09-03T07:58:51;15.60;99.90
9305;DHT22;4690;52.422;13.486;2022-09-03T08:01:19;15.80;99.90
9305;DHT22;4690;52.422;13.486;2022-09-03T08:03:48;15.90;99.90
9305;DHT22;4690;52.422;13.486;2022-09-03T08:06:17;16.00;99.90
9305;DHT22;4690;52.422;13.486;2022-09-03T08:08:46;16.10;99.90
9305;DHT22;4690;52.422;13.486;2022-09-03T08:11:18;16.30;99.90
9305;DHT22;4690;52.422;13.486;2022-09-03T08:13:48;16.50;99.90
9305;DHT22;4690;52.422;13.486;2022-09-03T08:16:19;16.80;99.90
9305;DHT22;4690;52.422;13.486;2022-09-03T08:18:45;17.30;99.90
9305;DHT22;4690;52.422;13.486;2022-09-03T08:21:17;17.40;99.90
9305;DHT22;4690;52.422;13.486;2022-09-03T08:23:49;17.80;99.90
9305;DHT22;4690;52.422;13.486;2022-09-03T08:26:17;17.80;99.90
9305;DHT22;4690;52.422;13.486;2022-09-03T08:28:44;17.80;99.90
9305;DHT22;4690;52.422;13.486;2022-09-03T08:31:13;17.90;99.90
9305;DHT22;4690;52.422;13.486;2022-09-03T08:33:46;18.40;99.90
9305;DHT22;4690;52.422;13.486;2022-09-03T08:36:23;18.70;99.90
9305;DHT22;4690;52.422;13.486;2022-09-03T08:38:52;18.90;99.90
9305;DHT22;4690;52.422;13.486;2022-09-03T08:41:27;19.00;99.90
9305;DHT22;4690;52.422;13.486;2022-09-03T08:44:30;19.00;99.90
9305;DHT22;4690;52.422;13.486;2022-09-03T08:47:04;19.20;99.90
9305;DHT22;4690;52.422;13.486;2022-09-03T08:55:40;19.80;99.90
9305;DHT22;4690;52.422;13.486;2022-09-03T08:58:32;19.80;99.90
9305;DHT22;4690;52.422;13.486;2022-09-03T09:03:41;19.90;99.90
9305;DHT22;4690;52.422;13.486;2022-09-03T09:06:22;19.90;99.90
9305;DHT22;4690;52.422;13.486;2022-09-03T09:09:30;20.00;99.90
9305;DHT22;4690;52.422;13.486;2022-09-03T09:12:15;20.00;99.90
9305;DHT22;4690;52.422;13.486;2022-09-03T09:21:15;20.40;99.90
9305;DHT22;4690;52.422;13.486;2022-09-03T09:23:50;20.50;99.90
9305;DHT22;4690;52.422;13.486;2022-09-03T09:26:20;20.50;99.90
9305;DHT22;4690;52.422;13.486;2022-09-03T09:28:54;20.90;99.90
9305;DHT22;4690;52.422;13.486;2022-09-03T09:31:28;20.80;99.90
9305;DHT22;4690;52.422;13.486;2022-09-03T09:34:03;21.00;99.90
9305;DHT22;4690;52.422;13.486;2022-09-03T09:36:36;21.10;99.90
9305;DHT22;4690;52.422;13.486;2022-09-03T09:39:09;21.10;99.90
9305;DHT22;4690;52.422;13.486;2022-09-03T09:41:35;21.10;99.90
9305;DHT22;4690;52.422;13.486;2022-09-03T09:44:03;21.00;99.90
9305;DHT22;4690;52.422;13.486;2022-09-03T09:46:36;21.10;99.90
9305;DHT22;4690;52.422;13.486;2022-09-03T09:49:52;21.00;99.90
9305;DHT22;4690;52.422;13.486;2022-09-03T09:52:14;21.20;99.90
9305;DHT22;4690;52.422;13.486;2022-09-03T09:54:43;21.30;99.90
9305;DHT22;4690;52.422;13.486;2022-09-03T09:57:20;21.30;99.90
9305;DHT22;4690;52.422;13.486;2022-09-03T10:00:00;21.40;99.90
9305;DHT22;4690;52.422;13.486;2022-09-03T10:02:34;21.50;99.90
9305;DHT22;4690;52.422;13.486;2022-09-03T10:05:31;21.40;99.90
9305;DHT22;4690;52.422;13.486;2022-09-03T10:08:03;21.30;99.90
9305;DHT22;4690;52.422;13.486;2022-09-03T10:10:34;20.90;99.90
9305;DHT22;4690;52.422;13.486;2022-09-03T10:13:11;20.80;99.90
9305;DHT22;4690;52.422;13.486;2022-09-03T10:16:02;20.50;99.90
9305;DHT22;4690;52.422;13.486;2022-09-03T10:27:13;20.30;99.90
9305;DHT22;4690;52.422;13.486;2022-09-03T10:29:42;20.30;99.90
9305;DHT22;4690;52.422;13.486;2022-09-03T10:32:37;20.30;99.90
9305;DHT22;4690;52.422;13.486;2022-09-03T10:35:29;20.30;99.90
9305;DHT22;4690;52.422;13.486;2022-09-03T10:38:13;20.30;99.90
9305;DHT22;4690;52.422;13.486;2022-09-03T10:47:13;20.20;99.90
9305;DHT22;4690;52.422;13.486;2022-09-03T10:52:55;20.20;99.90
9305;DHT22;4690;52.422;13.486;2022-09-03T10:56:29;20.40;99.90
9305;DHT22;4690;52.422;13.486;2022-09-03T11:04:54;20.60;99.90
9305;DHT22;4690;52.422;13.486;2022-09-03T11:07:34;20.50;99.90
9305;DHT22;4690;52.422;13.486;2022-09-03T11:10:21;20.40;99.90
9305;DHT22;4690;52.422;13.486;2022-09-03T11:16:00;21.00;99.90
9305;DHT22;4690;52.422;13.486;2022-09-03T11:18:40;21.00;99.90
9305;DHT22;4690;52.422;13.486;2022-09-03T11:21:13;21.00;99.90
9305;DHT22;4690;52.422;13.486;2022-09-03T11:23:45;21.40;99.90
9305;DHT22;4690;52.422;13.486;2022-09-03T11:26:17;22.10;99.90
9305;DHT22;4690;52.422;13.486;2022-09-03T11:31:50;22.60;99.90
9305;DHT22;4690;52.422;13.486;2022-09-03T11:34:50;22.80;99.90
9305;DHT22;4690;52.422;13.486;2022-09-03T11:37:22;22.70;99.90
9305;DHT22;4690;52.422;13.486;2022-09-03T11:42:44;21.90;99.90
9305;DHT22;4690;52.422;13.486;2022-09-03T11:45:35;21.60;99.90
9305;DHT22;4690;52.422;13.486;2022-09-03T11:48:16;21.40;99.90
9305;DHT22;4690;52.422;13.486;2022-09-03T11:51:03;21.40;99.90
9305;DHT22;4690;52.422;13.486;2022-09-03T11:53:34;21.50;99.90
9305;DHT22;4690;52.422;13.486;2022-09-03T11:58:35;21.40;99.90
9305;DHT22;4690;52.422;13.486;2022-09-03T12:01:09;21.90;99.90
9305;DHT22;4690;52.422;13.486;2022-09-03T12:03:43;21.90;99.90
9305;DHT22;4690;52.422;13.486;2022-09-03T12:12:30;21.20;99.90
9305;DHT22;4690;52.422;13.486;2022-09-03T12:18:22;21.20;99.90
9305;DHT22;4690;52.422;13.486;2022-09-03T12:26:04;21.80;99.90
9305;DHT22;4690;52.422;13.486;2022-09-03T12:28:37;22.10;99.90
9305;DHT22;4690;52.422;13.486;2022-09-03T12:31:13;21.90;99.90
9305;DHT22;4690;52.422;13.486;2022-09-03T12:33:50;21.70;99.90
9305;DHT22;4690;52.422;13.486;2022-09-03T12:36:19;21.50;99.90
9305;DHT22;4690;52.422;13.486;2022-09-03T12:38:47;21.30;99.90
9305;DHT22;4690;52.422;13.486;2022-09-03T12:41:27;21.40;99.90
9305;DHT22;4690;52.422;13.486;2022-09-03T12:43:59;21.80;99.90
9305;DHT22;4690;52.422;13.486;2022-09-03T12:46:28;22.00;99.90
9305;DHT22;4690;52.422;13.486;2022-09-03T12:48:59;22.30;99.90
9305;DHT22;4690;52.422;13.486;2022-09-03T12:51:38;22.10;99.90
9305;DHT22;4690;52.422;13.486;2022-09-03T12:54:09;22.30;99.90
9305;DHT22;4690;52.422;13.486;2022-09-03T12:56:56;22.10;99.90
9305;DHT22;4690;52.422;13.486;2022-09-03T12:59:26;21.90;99.90
9305;DHT22;4690;52.422;13.486;2022-09-03T13:01:59;21.70;99.90
9305;DHT22;4690;52.422;13.486;2022-09-03T13:04:38;21.60;99.90
9305;DHT22;4690;52.422;13.486;2022-09-03T13:10:00;21.70;99.90
9305;DHT22;4690;52.422;13.486;2022-09-03T13:12:40;21.70;99.90
9305;DHT22;4690;52.422;13.486;2022-09-03T13:15:16;21.70;99.90
9305;DHT22;4690;52.422;13.486;2022-09-03T13:23:36;21.40;99.90
9305;DHT22;4690;52.422;13.486;2022-09-03T13:26:44;21.40;99.90
9305;DHT22;4690;52.422;13.486;2022-09-03T13:33:01;21.30;99.90
9305;DHT22;4690;52.422;13.486;2022-09-03T13:41:32;21.30;99.90
9305;DHT22;4690;52.422;13.486;2022-09-03T13:44:19;21.40;99.90
9305;DHT22;4690;52.422;13.486;2022-09-03T13:47:24;21.30;99.90
9305;DHT22;4690;52.422;13.486;2022-09-03T13:50:15;21.20;99.90
9305;DHT22;4690;52.422;13.486;2022-09-03T13:52:55;21.20;99.90
9305;DHT22;4690;52.422;13.486;2022-09-03T13:55:44;21.30;99.90
9305;DHT22;4690;52.422;13.486;2022-09-03T13:58:30;21.40;99.90
9305;DHT22;4690;52.422;13.486;2022-09-03T14:03:55;21.40;99.90
9305;DHT22;4690;52.422;13.486;2022-09-03T14:06:41;21.30;99.90
9305;DHT22;4690;52.422;13.486;2022-09-03T14:17:46;21.60;99.90
9305;DHT22;4690;52.422;13.486;2022-09-03T14:20:35;21.50;99.90
9305;DHT22;4690;52.422;13.486;2022-09-03T14:26:21;21.30;99.90
9305;DHT22;4690;52.422;13.486;2022-09-03T14:35:04;21.60;99.90
9305;DHT22;4690;52.422;13.486;2022-09-03T14:46:24;22.40;99.90
9305;DHT22;4690;52.422;13.486;2022-09-03T14:49:09;22.60;99.90
9305;DHT22;4690;52.422;13.486;2022-09-03T14:54:41;22.40;99.90
9305;DHT22;4690;52.422;13.486;2022-09-03T15:00:20;22.40;99.90
9305;DHT22;4690;52.422;13.486;2022-09-03T15:06:13;22.50;99.90
9305;DHT22;4690;52.422;13.486;2022-09-03T15:09:13;22.50;99.90
9305;DHT22;4690;52.422;13.486;2022-09-03T15:11:56;22.60;99.90
9305;DHT22;4690;52.422;13.486;2022-09-03T15:20:35;22.50;99.90
9305;DHT22;4690;52.422;13.486;2022-09-03T15:26:20;22.20;99.90
9305;DHT22;4690;52.422;13.486;2022-09-03T15:29:00;22.20;99.90
9305;DHT22;4690;52.422;13.486;2022-09-03T15:35:08;22.20;99.90
9305;DHT22;4690;52.422;13.486;2022-09-03T15:37:59;22.10;99.90
9305;DHT22;4690;52.422;13.486;2022-09-03T15:40:34;22.20;99.90
9305;DHT22;4690;52.422;13.486;2022-09-03T15:46:03;21.90;99.90
9305;DHT22;4690;52.422;13.486;2022-09-03T15:49:02;21.80;99.90
9305;DHT22;4690;52.422;13.486;2022-09-03T15:52:23;22.00;99.90
9305;DHT22;4690;52.422;13.486;2022-09-03T15:54:55;22.20;99.90
9305;DHT22;4690;52.422;13.486;2022-09-03T15:57:57;22.20;99.90
9305;DHT22;4690;52.422;13.486;2022-09-03T16:03:12;21.70;99.90
9305;DHT22;4690;52.422;13.486;2022-09-03T16:05:48;21.60;99.90
9305;DHT22;4690;52.422;13.486;2022-09-03T16:08:42;21.60;99.90
9305;DHT22;4690;52.422;13.486;2022-09-03T16:11:33;21.50;99.90
9305;DHT22;4690;52.422;13.486;2022-09-03T16:14:20;21.50;99.90
9305;DHT22;4690;52.422;13.486;2022-09-03T16:17:32;21.40;99.90
9305;DHT22;4690;52.422;13.486;2022-09-03T16:20:18;21.50;99.90
9305;DHT22;4690;52.422;13.486;2022-09-03T16:23:12;21.50;99.90
9305;DHT22;4690;52.422;13.486;2022-09-03T16:25:50;21.50;99.90
9305;DHT22;4690;52.422;13.486;2022-09-03T16:28:28;21.50;99.90
9305;DHT22;4690;52.422;13.486;2022-09-03T16:31:19;21.50;99.90
9305;DHT22;4690;52.422;13.486;2022-09-03T16:34:05;21.50;99.90
9305;DHT22;4690;52.422;13.486;2022-09-03T16:37:30;21.50;99.90
9305;DHT22;4690;52.422;13.486;2022-09-03T16:48:38;21.30;99.90
9305;DHT22;4690;52.422;13.486;2022-09-03T16:51:38;21.20;99.90
9305;DHT22;4690;52.422;13.486;2022-09-03T16:57:06;21.10;99.90
9305;DHT22;4690;52.422;13.486;2022-09-03T17:17:56;20.60;99.90
9305;DHT22;4690;52.422;13.486;2022-09-03T17:21:07;20.60;99.90
9305;DHT22;4690;52.422;13.486;2022-09-03T17:26:21;20.50;99.90
9305;DHT22;4690;52.422;13.486;2022-09-03T17:29:19;20.50;99.90
9305;DHT22;4690;52.422;13.486;2022-09-03T17:50:22;20.20;99.90
9305;DHT22;4690;52.422;13.486;2022-09-03T17:52:58;20.20;99.90
9305;DHT22;4690;52.422;13.486;2022-09-03T17:55:42;20.10;99.90
9305;DHT22;4690;52.422;13.486;2022-09-03T17:58:31;20.10;99.90
9305;DHT22;4690;52.422;13.486;2022-09-03T18:03:47;20.00;99.90
9305;DHT22;4690;52.422;13.486;2022-09-03T18:09:34;20.00;99.90
9305;DHT22;4690;52.422;13.486;2022-09-03T18:14:58;20.00;99.90
9305;DHT22;4690;52.422;13.486;2022-09-03T18:17:36;20.00;99.90
9305;DHT22;4690;52.422;13.486;2022-09-03T18:20:10;19.90;99.90
9305;DHT22;4690;52.422;13.486;2022-09-03T18:26:06;19.80;99.90
9305;DHT22;4690;52.422;13.486;2022-09-03T18:29:07;19.70;99.90
9305;DHT22;4690;52.422;13.486;2022-09-03T18:31:56;19.70;99.90
9305;DHT22;4690;52.422;13.486;2022-09-03T18:34:41;19.60;99.90
9305;DHT22;4690;52.422;13.486;2022-09-03T18:37:26;19.60;99.90
9305;DHT22;4690;52.422;13.486;2022-09-03T18:40:16;19.60;99.90
9305;DHT22;4690;52.422;13.486;2022-09-03T18:53:03;19.40;99.90
9305;DHT22;4690;52.422;13.486;2022-09-03T18:56:18;19.40;99.90
9305;DHT22;4690;52.422;13.486;2022-09-03T19:06:47;19.30;99.90
9305;DHT22;4690;52.422;13.486;2022-09-03T19:10:13;19.30;99.90
9305;DHT22;4690;52.422;13.486;2022-09-03T19:13:06;19.30;99.90
9305;DHT22;4690;52.422;13.486;2022-09-03T19:19:19;19.20;99.90
9305;DHT22;4690;52.422;13.486;2022-09-03T19:22:36;19.10;99.90
9305;DHT22;4690;52.422;13.486;2022-09-03T19:25:24;19.00;99.90
9305;DHT22;4690;52.422;13.486;2022-09-03T19:28:17;19.00;99.90
9305;DHT22;4690;52.422;13.486;2022-09-03T19:38:35;19.00;99.90
9305;DHT22;4690;52.422;13.486;2022-09-03T19:41:41;19.00;99.90
9305;DHT22;4690;52.422;13.486;2022-09-03T19:45:02;19.00;99.90
9305;DHT22;4690;52.422;13.486;2022-09-03T19:48:28;19.10;99.90
9305;DHT22;4690;52.422;13.486;2022-09-03T19:52:15;19.00;99.90
9305;DHT22;4690;52.422;13.486;2022-09-03T19:55:01;19.00;99.90
9305;DHT22;4690;52.422;13.486;2022-09-03T19:57:51;18.90;99.90
9305;DHT22;4690;52.422;13.486;2022-09-03T20:00:41;18.90;99.90
9305;DHT22;4690;52.422;13.486;2022-09-03T20:03:26;18.90;99.90
9305;DHT22;4690;52.422;13.486;2022-09-03T20:06:13;18.90;99.90
9305;DHT22;4690;52.422;13.486;2022-09-03T20:09:07;18.80;99.90
9305;DHT22;4690;52.422;13.486;2022-09-03T20:12:02;18.70;99.90
9305;DHT22;4690;52.422;13.486;2022-09-03T20:14:34;18.80;99.90
9305;DHT22;4690;52.422;13.486;2022-09-03T20:20:14;18.80;99.90
9305;DHT22;4690;52.422;13.486;2022-09-03T20:28:29;18.80;99.90
9305;DHT22;4690;52.422;13.486;2022-09-03T20:36:49;18.60;99.90
9305;DHT22;4690;52.422;13.486;2022-09-03T20:45:40;18.50;99.90
9305;DHT22;4690;52.422;13.486;2022-09-03T20:51:25;18.50;99.90
9305;DHT22;4690;52.422;13.486;2022-09-03T20:54:00;18.60;99.90
9305;DHT22;4690;52.422;13.486;2022-09-03T21:11:39;18.40;99.90
9305;DHT22;4690;52.422;13.486;2022-09-03T21:18:03;18.40;99.90
9305;DHT22;4690;52.422;13.486;2022-09-03T21:20:44;18.40;99.90
9305;DHT22;4690;52.422;13.486;2022-09-03T21:25:57;18.40;99.90
9305;DHT22;4690;52.422;13.486;2022-09-03T21:28:38;18.30;99.90
9305;DHT22;4690;52.422;13.486;2022-09-03T21:31:30;18.30;99.90
9305;DHT22;4690;52.422;13.486;2022-09-03T21:34:11;18.40;99.90
9305;DHT22;4690;52.422;13.486;2022-09-03T21:36:45;18.40;99.90
9305;DHT22;4690;52.422;13.486;2022-09-03T21:39:26;18.30;99.90
9305;DHT22;4690;52.422;13.486;2022-09-03T21:47:48;18.20;99.90
9305;DHT22;4690;52.422;13.486;2022-09-03T21:50:27;18.20;99.90
9305;DHT22;4690;52.422;13.486;2022-09-03T21:53:28;18.20;99.90
9305;DHT22;4690;52.422;13.486;2022-09-03T22:02:02;18.10;99.90
9305;DHT22;4690;52.422;13.486;2022-09-03T22:04:32;18.10;99.90
9305;DHT22;4690;52.422;13.486;2022-09-03T22:19:11;17.80;99.90
9305;DHT22;4690;52.422;13.486;2022-09-03T22:25:10;17.80;99.90
9305;DHT22;4690;52.422;13.486;2022-09-03T22:28:09;17.70;99.90
9305;DHT22;4690;52.422;13.486;2022-09-03T22:31:02;17.70;99.90
9305;DHT22;4690;52.422;13.486;2022-09-03T22:36:20;17.60;99.90
9305;DHT22;4690;52.422;13.486;2022-09-03T22:50:32;17.30;99.90
9305;DHT22;4690;52.422;13.486;2022-09-03T22:56:13;17.20;99.90